createdAt,value
2023-02-11T00:01:22.740Z,2.67
2023-02-11T00:04:08.356Z,2.10
2023-02-11T00:06:55.136Z,2.03
2023-02-11T00:09:40.569Z,1.70
2023-02-11T00:12:26.085Z,1.88
2023-02-11T00:15:11.616Z,1.83
2023-02-11T00:17:56.978Z,1.63
2023-02-11T00:20:42.861Z,1.48
2023-02-11T00:23:28.054Z,1.98
2023-02-11T00:26:16.018Z,2.38
2023-02-11T00:29:02.644Z,1.85
2023-02-11T00:31:50.142Z,1.98
2023-02-11T00:34:36.815Z,2.80
2023-02-11T00:37:22.714Z,2.33
2023-02-11T00:40:08.779Z,2.05
2023-02-11T00:42:54.157Z,1.80
2023-02-11T00:45:39.372Z,2.55
2023-02-11T00:48:24.941Z,2.40
2023-02-11T00:51:10.691Z,2.60
2023-02-11T00:53:55.986Z,3.08
2023-02-11T00:56:42.044Z,2.92
2023-02-11T00:59:27.531Z,4.28
2023-02-11T01:02:13.305Z,3.08
2023-02-11T01:05:00.229Z,3.83
2023-02-11T01:07:45.798Z,3.05
2023-02-11T01:10:31.680Z,2.95
2023-02-11T01:13:16.923Z,2.45
2023-02-11T01:16:02.307Z,3.05
2023-02-11T01:18:48.282Z,3.67
2023-02-11T01:21:36.038Z,2.60
2023-02-11T01:24:21.325Z,3.05
2023-02-11T01:27:06.739Z,3.50
2023-02-11T01:29:51.958Z,3.15
2023-02-11T01:32:39.908Z,3.13
2023-02-11T01:35:27.447Z,3.10
2023-02-11T01:38:17.522Z,3.60
2023-02-11T01:41:08.180Z,3.40
2023-02-11T01:43:53.576Z,3.55
2023-02-11T01:46:39.009Z,2.72
2023-02-11T01:49:35.286Z,3.13
2023-02-11T01:52:37.057Z,2.95
2023-02-11T01:55:41.044Z,3.35
2023-02-11T01:58:29.140Z,3.40
2023-02-11T02:01:19.763Z,3.10
2023-02-11T02:04:08.464Z,2.85
2023-02-11T02:07:02.811Z,2.33
2023-02-11T02:09:58.870Z,2.22
2023-02-11T02:12:44.189Z,3.28
2023-02-11T02:15:38.368Z,2.55
2023-02-11T02:19:11.506Z,2.63
2023-02-11T02:22:06.327Z,2.00
2023-02-11T02:25:12.053Z,2.00
2023-02-11T02:28:29.385Z,2.13
2023-02-11T02:31:17.992Z,2.65
2023-02-11T02:34:13.563Z,2.00
2023-02-11T02:37:11.793Z,2.08
2023-02-11T02:39:59.821Z,2.35
2023-02-11T02:42:46.236Z,2.40
2023-02-11T02:45:33.175Z,2.30
2023-02-11T02:48:33.836Z,2.15
2023-02-11T02:51:49.405Z,2.20
2023-02-11T02:54:40.959Z,2.85
2023-02-11T02:57:58.826Z,1.50
2023-02-11T03:01:01.787Z,1.70
2023-02-11T03:04:18.603Z,1.95
2023-02-11T03:07:22.807Z,2.20
2023-02-11T03:10:20.938Z,2.20
2023-02-11T03:13:07.787Z,2.20
2023-02-11T03:15:57.288Z,1.70
2023-02-11T03:18:46.842Z,2.33
2023-02-11T03:21:36.477Z,2.35
2023-02-11T03:24:30.791Z,2.05
2023-02-11T03:27:41.563Z,1.75
2023-02-11T03:30:32.645Z,2.45
2023-02-11T03:34:08.935Z,2.00
2023-02-11T03:36:57.172Z,2.13
2023-02-11T03:39:50.457Z,1.77
2023-02-11T03:42:42.565Z,2.40
2023-02-11T03:45:29.210Z,2.15
2023-02-11T03:48:52.680Z,2.33
2023-02-11T03:51:39.386Z,2.25
2023-02-11T03:54:30.478Z,2.00
2023-02-11T03:57:15.878Z,2.20
2023-02-11T04:00:01.579Z,2.00
2023-02-11T04:02:56.857Z,2.22
2023-02-11T04:05:42.399Z,1.90
2023-02-11T04:08:28.090Z,2.30
2023-02-11T04:11:13.705Z,1.90
2023-02-11T04:13:59.008Z,1.88
2023-02-11T04:16:45.384Z,2.22
2023-02-11T04:19:31.348Z,1.52
2023-02-11T04:22:16.792Z,2.00
2023-02-11T04:25:02.182Z,2.08
2023-02-11T04:27:47.578Z,2.72
2023-02-11T04:30:33.008Z,2.15
2023-02-11T04:33:18.376Z,1.98
2023-02-11T04:36:03.738Z,2.58
2023-02-11T04:38:49.906Z,1.38
2023-02-11T04:41:35.239Z,2.03
2023-02-11T04:44:20.675Z,2.13
2023-02-11T04:47:06.303Z,2.35
2023-02-11T04:49:51.626Z,1.80
2023-02-11T04:52:37.141Z,2.15
2023-02-11T04:55:22.488Z,3.05
2023-02-11T04:58:07.911Z,1.95
2023-02-11T05:00:53.328Z,2.05
2023-02-11T05:03:38.741Z,1.90
2023-02-11T05:06:24.687Z,2.45
2023-02-11T05:09:13.274Z,1.98
2023-02-11T05:11:58.600Z,1.38
2023-02-11T05:14:43.970Z,1.45
2023-02-11T05:17:29.287Z,1.45
2023-02-11T05:20:15.817Z,1.75
2023-02-11T05:23:01.392Z,1.45
2023-02-11T05:25:46.653Z,1.33
2023-02-11T05:28:32.130Z,1.90
2023-02-11T05:31:17.531Z,2.25
2023-02-11T05:34:04.190Z,1.48
2023-02-11T05:36:49.573Z,1.77
2023-02-11T05:39:34.992Z,1.80
2023-02-11T05:42:20.342Z,1.45
2023-02-11T05:45:06.225Z,1.80
2023-02-11T05:47:51.978Z,1.85
2023-02-11T05:50:37.454Z,1.17
2023-02-11T05:53:23.101Z,1.45
2023-02-11T05:56:08.650Z,1.75
2023-02-11T05:58:53.985Z,1.58
2023-02-11T06:01:39.372Z,1.23
2023-02-11T06:04:24.644Z,1.00
2023-02-11T06:07:10.144Z,1.63
2023-02-11T06:09:55.622Z,1.33
2023-02-11T06:12:40.966Z,1.08
2023-02-11T06:15:26.455Z,1.25
2023-02-11T06:18:11.747Z,1.13
2023-02-11T06:20:57.102Z,1.50
2023-02-11T06:23:43.642Z,1.15
2023-02-11T06:26:29.008Z,1.30
2023-02-11T06:29:14.756Z,1.20
2023-02-11T06:32:00.190Z,1.33
2023-02-11T06:34:46.532Z,1.10
2023-02-11T06:37:31.785Z,1.38
2023-02-11T06:40:17.159Z,0.90
2023-02-11T06:43:02.632Z,1.05
2023-02-11T06:45:55.797Z,0.63
2023-02-11T06:48:43.136Z,0.95
2023-02-11T06:51:30.043Z,1.38
2023-02-11T06:54:15.665Z,1.02
2023-02-11T06:57:01.118Z,1.15
2023-02-11T06:59:47.424Z,1.00
2023-02-11T07:02:32.942Z,0.90
2023-02-11T07:05:18.207Z,0.82
2023-02-11T07:08:03.682Z,0.63
2023-02-11T07:10:48.996Z,1.00
2023-02-11T07:13:34.311Z,0.88
2023-02-11T07:16:20.510Z,0.80
2023-02-11T07:19:05.954Z,0.85
2023-02-11T07:21:52.469Z,0.93
2023-02-11T07:24:38.001Z,0.95
2023-02-11T07:27:23.442Z,0.90
2023-02-11T07:30:09.569Z,0.85
2023-02-11T07:32:56.778Z,0.77
2023-02-11T07:35:42.792Z,0.93
2023-02-11T07:38:28.554Z,0.60
2023-02-11T07:41:17.124Z,0.82
2023-02-11T07:44:03.510Z,0.70
2023-02-11T07:46:49.376Z,1.00
2023-02-11T07:49:34.550Z,0.70
2023-02-11T07:52:20.274Z,1.27
2023-02-11T07:55:06.216Z,1.20
2023-02-11T07:57:51.828Z,0.90
2023-02-11T08:00:37.430Z,1.00
2023-02-11T08:03:22.960Z,0.80
2023-02-11T08:06:11.271Z,0.77
2023-02-11T08:08:57.111Z,0.88
2023-02-11T08:11:42.981Z,0.60
2023-02-11T08:14:28.670Z,1.02
2023-02-11T08:17:13.934Z,0.85
2023-02-11T08:19:59.426Z,0.75
2023-02-11T08:22:44.816Z,0.80
2023-02-11T08:25:30.073Z,0.60
2023-02-11T08:28:15.578Z,0.75
2023-02-11T08:31:09.098Z,0.80
2023-02-11T08:33:57.932Z,0.50
2023-02-11T08:36:43.823Z,0.88
2023-02-11T08:39:29.220Z,1.40
2023-02-11T08:42:15.712Z,1.40
2023-02-11T08:45:01.327Z,0.93
2023-02-11T08:47:46.584Z,1.08
2023-02-11T08:50:32.405Z,0.98
2023-02-11T08:53:17.930Z,0.85
2023-02-11T08:56:03.908Z,1.00
2023-02-11T08:58:50.450Z,0.80
2023-02-11T09:01:35.981Z,0.50
2023-02-11T09:04:21.175Z,1.52
2023-02-11T09:07:07.443Z,0.95
2023-02-11T09:09:53.105Z,1.15
2023-02-11T09:12:38.693Z,1.40
2023-02-11T09:15:24.034Z,1.52
2023-02-11T09:18:09.333Z,1.13
2023-02-11T09:21:05.887Z,1.10
2023-02-11T09:23:51.644Z,1.30
2023-02-11T09:26:37.780Z,1.35
2023-02-11T09:29:23.581Z,1.27
2023-02-11T09:32:10.053Z,0.90
2023-02-11T09:34:55.626Z,0.88
2023-02-11T09:37:40.996Z,0.95
2023-02-11T09:40:26.387Z,0.90
2023-02-11T09:43:24.934Z,1.30
2023-02-11T09:46:15.237Z,1.15
2023-02-11T09:49:02.181Z,1.25
2023-02-11T09:52:24.976Z,1.25
2023-02-11T09:58:15.186Z,1.25
2023-02-11T10:01:19.962Z,0.98
2023-02-11T10:04:48.907Z,0.93
2023-02-11T10:07:34.163Z,1.00
2023-02-11T10:10:37.221Z,1.10
2023-02-11T10:13:47.526Z,1.13
2023-02-11T10:16:41.976Z,1.25
2023-02-11T10:19:45.807Z,1.45
2023-02-11T10:22:41.478Z,1.10
2023-02-11T10:25:27.116Z,1.30
2023-02-11T10:28:19.041Z,1.30
2023-02-11T10:31:15.978Z,1.35
2023-02-11T10:34:05.513Z,1.10
2023-02-11T10:36:51.399Z,1.50
2023-02-11T10:39:37.066Z,1.40
2023-02-11T10:42:22.657Z,1.20
2023-02-11T10:45:17.891Z,1.55
2023-02-11T10:48:27.349Z,1.75
2023-02-11T10:51:23.418Z,1.77
2023-02-11T10:54:13.876Z,1.83
2023-02-11T10:57:00.318Z,1.08
2023-02-11T10:59:46.051Z,1.70
2023-02-11T11:02:34.776Z,1.80
2023-02-11T11:05:28.061Z,1.10
2023-02-11T11:08:13.568Z,1.30
2023-02-11T11:11:05.770Z,1.90
2023-02-11T11:13:54.138Z,1.70
2023-02-11T11:16:54.611Z,1.42
2023-02-11T11:19:39.950Z,1.75
2023-02-11T11:22:25.338Z,1.15
2023-02-11T11:25:30.622Z,1.17
2023-02-11T11:28:23.944Z,1.33
2023-02-11T11:31:37.438Z,1.20
2023-02-11T11:34:26.294Z,1.25
2023-02-11T11:37:15.178Z,1.48
2023-02-11T11:40:11.558Z,1.52
2023-02-11T11:43:15.576Z,1.30
2023-02-11T11:46:02.896Z,1.63
2023-02-11T11:48:51.848Z,1.42
2023-02-11T11:51:41.959Z,1.00
2023-02-11T11:54:29.336Z,1.40
2023-02-11T11:57:25.724Z,1.10
2023-02-11T12:00:20.964Z,1.48
2023-02-11T12:03:09.233Z,1.50
2023-02-11T12:06:18.624Z,1.30
2023-02-11T12:09:19.864Z,0.80
2023-02-11T12:12:32.872Z,0.93
2023-02-11T12:15:43.253Z,1.48
2023-02-11T12:18:53.415Z,0.80
2023-02-11T12:22:02.984Z,1.40
2023-02-11T12:25:16.882Z,0.80
2023-02-11T12:28:35.932Z,1.27
2023-02-11T12:31:47.951Z,1.50
2023-02-11T12:34:53.829Z,1.10
2023-02-11T12:37:59.386Z,1.08
2023-02-11T12:41:10.431Z,0.70
2023-02-11T12:43:56.197Z,0.77
2023-02-11T12:46:51.691Z,1.30
2023-02-11T12:49:49.795Z,1.02
2023-02-11T12:52:50.946Z,1.23
2023-02-11T12:55:42.898Z,0.95
2023-02-11T13:01:40.890Z,0.90
2023-02-11T13:04:33.443Z,0.77
2023-02-11T13:07:29.809Z,1.30
2023-02-11T13:10:30.409Z,0.68
2023-02-11T13:13:45.021Z,0.93
2023-02-11T13:16:33.652Z,1.10
2023-02-11T13:19:42.675Z,0.90
2023-02-11T13:22:44.219Z,1.17
2023-02-11T13:25:36.275Z,0.90
2023-02-11T13:28:54.402Z,1.08
2023-02-11T13:31:39.918Z,1.10
2023-02-11T13:34:46.539Z,0.70
2023-02-11T13:37:37.491Z,1.45
2023-02-11T13:40:45.204Z,1.20
2023-02-11T13:43:33.086Z,0.85
2023-02-11T13:46:20.204Z,1.02
2023-02-11T13:49:05.469Z,1.05
2023-02-11T13:51:52.449Z,1.23
2023-02-11T13:54:39.920Z,1.08
2023-02-11T13:57:32.767Z,2.30
2023-02-11T14:00:33.826Z,1.08
2023-02-11T14:03:55.478Z,5.93
2023-02-11T14:07:45.416Z,1.63
2023-02-11T14:10:43.076Z,16.45
2023-02-11T14:13:34.654Z,3.90
2023-02-11T14:16:36.331Z,3.63
2023-02-11T14:19:33.138Z,7.05
2023-02-11T14:22:18.665Z,5.22
2023-02-11T14:25:15.474Z,1.25
2023-02-11T14:28:16.308Z,9.77
2023-02-11T14:31:12.560Z,4.68
2023-02-11T14:34:08.317Z,2.28
2023-02-11T14:37:18.254Z,1.63
2023-02-11T14:40:10.994Z,3.25
2023-02-11T14:43:02.144Z,1.02
2023-02-11T14:45:53.687Z,0.80
2023-02-11T14:48:45.756Z,2.37
2023-02-11T14:51:36.490Z,2.72
2023-02-11T14:54:26.594Z,4.00
2023-02-11T14:57:18.263Z,1.35
2023-02-11T15:00:19.830Z,1.25
2023-02-11T15:03:05.510Z,2.57
2023-02-11T15:06:04.365Z,1.80
2023-02-11T15:08:58.324Z,2.30
2023-02-11T15:11:46.950Z,1.40
2023-02-11T15:14:35.636Z,2.80
2023-02-11T15:17:28.188Z,2.22
2023-02-11T15:20:27.799Z,3.65
2023-02-11T15:23:23.521Z,2.08
2023-02-11T15:26:21.537Z,3.53
2023-02-11T15:29:16.843Z,2.70
2023-02-11T15:32:12.430Z,5.20
2023-02-11T15:34:58.630Z,2.53
2023-02-11T15:37:44.822Z,2.58
2023-02-11T15:40:33.255Z,1.75
2023-02-11T15:43:18.522Z,2.28
2023-02-11T15:46:03.883Z,1.80
2023-02-11T15:48:55.027Z,1.85
2023-02-11T15:51:44.791Z,2.00
2023-02-11T15:54:32.200Z,2.28
2023-02-11T15:57:18.204Z,2.58
2023-02-11T16:00:07.238Z,2.28
2023-02-11T16:02:57.416Z,1.88
2023-02-11T16:05:43.008Z,1.95
2023-02-11T16:08:33.006Z,1.58
2023-02-11T16:11:33.588Z,2.17
2023-02-11T16:14:27.991Z,2.00
2023-02-11T16:17:26.117Z,2.05
2023-02-11T16:20:19.909Z,2.72
2023-02-11T16:23:07.532Z,2.90
2023-02-11T16:26:26.487Z,2.13
2023-02-11T16:29:18.191Z,2.50
2023-02-11T16:32:17.574Z,2.38
2023-02-11T16:35:11.361Z,2.20
2023-02-11T16:37:57.083Z,2.38
2023-02-11T16:40:44.578Z,2.42
2023-02-11T16:43:30.281Z,2.10
2023-02-11T16:46:16.223Z,2.38
2023-02-11T16:49:11.747Z,2.60
2023-02-11T16:52:03.594Z,2.42
2023-02-11T16:54:49.459Z,2.90
2023-02-11T16:57:34.925Z,2.50
2023-02-11T17:00:20.821Z,2.88
2023-02-11T17:03:08.319Z,2.33
2023-02-11T17:05:55.930Z,4.38
2023-02-11T17:08:41.608Z,8.35
2023-02-11T17:11:27.139Z,3.90
2023-02-11T17:14:12.599Z,2.88
2023-02-11T17:16:58.410Z,4.32
2023-02-11T17:19:44.019Z,6.00
2023-02-11T17:22:29.661Z,4.45
2023-02-11T17:25:15.156Z,2.83
2023-02-11T17:28:00.624Z,3.25
2023-02-11T17:30:46.291Z,3.25
2023-02-11T17:33:33.976Z,4.47
2023-02-11T17:36:20.822Z,4.82
2023-02-11T17:39:08.254Z,4.28
2023-02-11T17:41:53.978Z,3.63
2023-02-11T17:44:39.409Z,4.97
2023-02-11T17:47:25.646Z,3.50
2023-02-11T17:50:11.318Z,2.92
2023-02-11T17:52:57.305Z,4.78
2023-02-11T17:55:43.137Z,3.78
2023-02-11T17:58:28.903Z,3.75
2023-02-11T18:01:14.323Z,3.97
2023-02-11T18:03:59.900Z,4.05
2023-02-11T18:06:46.448Z,3.95
2023-02-11T18:09:35.923Z,3.42
2023-02-11T18:12:25.311Z,2.72
2023-02-11T18:15:10.907Z,2.90
2023-02-11T18:17:56.268Z,4.20
2023-02-11T18:21:03.478Z,4.72
2023-02-11T18:23:50.253Z,6.55
2023-02-11T18:26:36.499Z,4.38
2023-02-11T18:29:22.017Z,7.82
2023-02-11T18:32:07.461Z,4.03
2023-02-11T18:34:52.716Z,3.20
2023-02-11T18:37:37.956Z,3.20
2023-02-11T18:40:23.516Z,3.40
2023-02-11T18:43:08.834Z,2.80
2023-02-11T18:45:54.634Z,4.15
2023-02-11T18:48:41.452Z,4.50
2023-02-11T18:51:26.984Z,5.60
2023-02-11T18:54:13.590Z,7.30
2023-02-11T18:56:58.959Z,8.13
2023-02-11T18:59:44.482Z,7.55
2023-02-11T19:02:29.865Z,8.57
2023-02-11T19:05:15.830Z,5.82
2023-02-11T19:08:01.458Z,4.03
2023-02-11T19:10:48.157Z,9.10
2023-02-11T19:13:33.708Z,5.00
2023-02-11T19:16:19.970Z,16.17
2023-02-11T19:19:05.847Z,20.58
2023-02-11T19:21:51.420Z,6.10
2023-02-11T19:24:37.568Z,4.22
2023-02-11T19:27:22.900Z,4.68
2023-02-11T19:30:09.629Z,7.95
2023-02-11T19:32:57.223Z,5.18
2023-02-11T19:35:42.521Z,4.20
2023-02-11T19:38:28.062Z,4.38
2023-02-11T19:41:16.106Z,5.40
2023-02-11T19:44:02.448Z,4.63
2023-02-11T19:46:50.287Z,3.53
2023-02-11T19:49:35.984Z,3.22
2023-02-11T19:52:21.709Z,4.53
2023-02-11T19:55:07.952Z,3.88
2023-02-11T19:57:53.589Z,3.80
2023-02-11T20:00:39.771Z,3.47
2023-02-11T20:03:25.260Z,3.35
2023-02-11T20:06:17.241Z,3.53
2023-02-11T20:09:06.710Z,5.32
2023-02-11T20:11:52.470Z,5.90
2023-02-11T20:14:38.056Z,3.88
2023-02-11T20:17:23.666Z,3.95
2023-02-11T20:20:09.623Z,6.00
2023-02-11T20:22:55.112Z,5.18
2023-02-11T20:25:40.513Z,8.55
2023-02-11T20:28:25.940Z,4.40
2023-02-11T20:31:12.650Z,3.80
2023-02-11T20:33:58.772Z,3.30
2023-02-11T20:36:51.702Z,5.45
2023-02-11T20:39:40.986Z,5.90
2023-02-11T20:42:27.499Z,6.03
2023-02-11T20:45:12.934Z,13.60
2023-02-11T20:47:58.224Z,18.50
2023-02-11T20:50:43.435Z,12.35
2023-02-11T20:53:28.987Z,11.32
2023-02-11T20:56:14.449Z,11.23
2023-02-11T20:59:01.160Z,19.73
2023-02-11T21:01:59.025Z,30.20
2023-02-11T21:04:44.486Z,17.75
2023-02-11T21:07:29.783Z,19.15
2023-02-11T21:10:15.043Z,22.45
2023-02-11T21:13:00.543Z,17.95
2023-02-11T21:15:46.127Z,21.52
2023-02-11T21:18:32.732Z,20.58
2023-02-11T21:21:19.708Z,13.80
2023-02-11T21:24:06.739Z,15.60
2023-02-11T21:26:52.171Z,18.73
2023-02-11T21:29:52.671Z,15.35
2023-02-11T21:32:39.684Z,13.77
2023-02-11T21:35:25.633Z,11.10
2023-02-11T21:38:11.228Z,13.27
2023-02-11T21:41:03.274Z,14.30
2023-02-11T21:43:49.572Z,11.38
2023-02-11T21:46:35.422Z,10.40
2023-02-11T21:49:21.569Z,11.65
2023-02-11T21:52:06.913Z,12.07
2023-02-11T21:54:52.127Z,10.23
2023-02-11T21:57:37.638Z,8.60
2023-02-11T22:00:23.258Z,6.60
2023-02-11T22:03:08.724Z,5.93
2023-02-11T22:05:54.530Z,8.43
2023-02-11T22:08:40.782Z,10.35
2023-02-11T22:11:26.117Z,4.38
2023-02-11T22:14:11.573Z,5.25
2023-02-11T22:16:56.905Z,7.97
2023-02-11T22:19:42.225Z,7.30
2023-02-11T22:22:29.192Z,6.85
2023-02-11T22:25:15.558Z,6.53
2023-02-11T22:28:01.313Z,5.03
2023-02-11T22:30:46.679Z,3.72
2023-02-11T22:33:32.151Z,3.30
2023-02-11T22:36:19.027Z,2.50
2023-02-11T22:39:07.415Z,2.17
2023-02-11T22:41:54.461Z,3.08
2023-02-11T22:44:40.182Z,6.65
2023-02-11T22:47:25.571Z,3.95
2023-02-11T22:50:11.290Z,2.58
2023-02-11T22:52:56.704Z,4.95
2023-02-11T22:55:42.080Z,5.50
2023-02-11T22:58:27.601Z,9.90
2023-02-11T23:01:14.406Z,8.07
2023-02-11T23:04:01.920Z,4.43
2023-02-11T23:06:50.552Z,3.28
2023-02-11T23:09:35.736Z,2.50
2023-02-11T23:12:21.283Z,3.03
2023-02-11T23:15:07.263Z,2.83
2023-02-11T23:17:52.874Z,5.43
2023-02-11T23:20:41.620Z,4.07
2023-02-11T23:23:27.009Z,5.20
2023-02-11T23:26:15.591Z,4.38
2023-02-11T23:29:01.361Z,4.85
2023-02-11T23:31:47.372Z,9.35
2023-02-11T23:34:32.748Z,5.65
2023-02-11T23:37:18.522Z,4.28
2023-02-11T23:40:04.435Z,3.13
2023-02-11T23:42:50.092Z,3.03
2023-02-11T23:45:35.533Z,2.50
2023-02-11T23:48:21.004Z,2.92
2023-02-11T23:51:09.722Z,1.77
2023-02-11T23:53:56.307Z,1.90
2023-02-11T23:56:42.679Z,1.85
2023-02-11T23:59:28.210Z,2.28
